sensor_id;sensor_type;location;lat;lon;timestamp;P1;durP1;ratioP1;P2;durP2;ratioP2
2638;SDS011;1329;51.384;7.122;2022-07-04T00:01:04;1.65;;;0.90;;
2638;SDS011;1329;51.384;7.122;2022-07-04T00:03:31;1.15;;;0.75;;
2638;SDS011;1329;51.384;7.122;2022-07-04T00:05:58;1.33;;;1.10;;
2638;SDS011;1329;51.384;7.122;2022-07-04T00:08:26;1.20;;;1.00;;
2638;SDS011;1329;51.384;7.122;2022-07-04T00:10:54;1.38;;;1.00;;
2638;SDS011;1329;51.384;7.122;2022-07-04T00:13:22;1.55;;;1.20;;
2638;SDS011;1329;51.384;7.122;2022-07-04T00:15:51;1.30;;;1.00;;
2638;SDS011;1329;51.384;7.122;2022-07-04T00:18:18;0.98;;;0.93;;
2638;SDS011;1329;51.384;7.122;2022-07-04T00:20:49;1.60;;;1.10;;
2638;SDS011;1329;51.384;7.122;2022-07-04T00:23:24;1.45;;;1.10;;
2638;SDS011;1329;51.384;7.122;2022-07-04T00:25:54;1.35;;;1.10;;
2638;SDS011;1329;51.384;7.122;2022-07-04T00:28:21;1.13;;;1.00;;
2638;SDS011;1329;51.384;7.122;2022-07-04T00:30:49;2.30;;;1.00;;
2638;SDS011;1329;51.384;7.122;2022-07-04T00:33:16;1.25;;;0.95;;
2638;SDS011;1329;51.384;7.122;2022-07-04T00:35:46;1.30;;;1.10;;
2638;SDS011;1329;51.384;7.122;2022-07-04T00:38:13;1.20;;;1.10;;
2638;SDS011;1329;51.384;7.122;2022-07-04T00:40:41;1.67;;;1.00;;
2638;SDS011;1329;51.384;7.122;2022-07-04T00:43:09;0.90;;;0.90;;
2638;SDS011;1329;51.384;7.122;2022-07-04T00:45:37;1.17;;;0.90;;
2638;SDS011;1329;51.384;7.122;2022-07-04T00:48:04;2.25;;;1.00;;
2638;SDS011;1329;51.384;7.122;2022-07-04T00:50:32;1.33;;;1.10;;
2638;SDS011;1329;51.384;7.122;2022-07-04T00:53:05;0.90;;;0.90;;
2638;SDS011;1329;51.384;7.122;2022-07-04T00:55:34;1.10;;;1.00;;
2638;SDS011;1329;51.384;7.122;2022-07-04T00:58:04;1.08;;;1.00;;
2638;SDS011;1329;51.384;7.122;2022-07-04T01:00:33;1.20;;;1.10;;
2638;SDS011;1329;51.384;7.122;2022-07-04T01:03:00;1.42;;;1.00;;
2638;SDS011;1329;51.384;7.122;2022-07-04T01:05:28;0.93;;;0.90;;
2638;SDS011;1329;51.384;7.122;2022-07-04T01:07:56;1.20;;;1.10;;
2638;SDS011;1329;51.384;7.122;2022-07-04T01:10:25;1.30;;;1.20;;
2638;SDS011;1329;51.384;7.122;2022-07-04T01:12:53;1.80;;;1.27;;
2638;SDS011;1329;51.384;7.122;2022-07-04T01:15:20;1.40;;;1.20;;
2638;SDS011;1329;51.384;7.122;2022-07-04T01:17:49;1.13;;;0.98;;
2638;SDS011;1329;51.384;7.122;2022-07-04T01:20:18;1.30;;;1.10;;
2638;SDS011;1329;51.384;7.122;2022-07-04T01:22:49;1.48;;;1.20;;
2638;SDS011;1329;51.384;7.122;2022-07-04T01:25:17;2.15;;;1.08;;
2638;SDS011;1329;51.384;7.122;2022-07-04T01:27:47;1.20;;;1.10;;
2638;SDS011;1329;51.384;7.122;2022-07-04T01:30:14;1.60;;;1.10;;
2638;SDS011;1329;51.384;7.122;2022-07-04T01:32:41;1.40;;;1.20;;
2638;SDS011;1329;51.384;7.122;2022-07-04T01:35:08;1.63;;;1.10;;
2638;SDS011;1329;51.384;7.122;2022-07-04T01:37:39;1.20;;;1.10;;
2638;SDS011;1329;51.384;7.122;2022-07-04T01:40:06;1.23;;;1.10;;
2638;SDS011;1329;51.384;7.122;2022-07-04T01:42:38;1.35;;;1.02;;
2638;SDS011;1329;51.384;7.122;2022-07-04T01:45:09;1.27;;;1.00;;
2638;SDS011;1329;51.384;7.122;2022-07-04T01:47:38;2.33;;;1.33;;
2638;SDS011;1329;51.384;7.122;2022-07-04T01:50:07;1.45;;;1.10;;
2638;SDS011;1329;51.384;7.122;2022-07-04T01:52:38;1.17;;;1.08;;
2638;SDS011;1329;51.384;7.122;2022-07-04T01:55:06;1.40;;;1.10;;
2638;SDS011;1329;51.384;7.122;2022-07-04T01:57:35;1.20;;;1.00;;
2638;SDS011;1329;51.384;7.122;2022-07-04T02:00:03;1.42;;;1.10;;
2638;SDS011;1329;51.384;7.122;2022-07-04T02:02:50;1.20;;;1.10;;
2638;SDS011;1329;51.384;7.122;2022-07-04T02:05:18;1.30;;;1.20;;
2638;SDS011;1329;51.384;7.122;2022-07-04T02:07:52;1.27;;;1.08;;
2638;SDS011;1329;51.384;7.122;2022-07-04T02:10:19;1.08;;;1.02;;
2638;SDS011;1329;51.384;7.122;2022-07-04T02:12:47;1.38;;;1.20;;
2638;SDS011;1329;51.384;7.122;2022-07-04T02:15:29;1.17;;;1.10;;
2638;SDS011;1329;51.384;7.122;2022-07-04T02:17:59;1.23;;;1.20;;
2638;SDS011;1329;51.384;7.122;2022-07-04T02:20:27;1.40;;;1.15;;
2638;SDS011;1329;51.384;7.122;2022-07-04T02:22:58;1.65;;;1.30;;
2638;SDS011;1329;51.384;7.122;2022-07-04T02:25:25;2.38;;;1.40;;
2638;SDS011;1329;51.384;7.122;2022-07-04T02:27:52;1.25;;;1.15;;
2638;SDS011;1329;51.384;7.122;2022-07-04T02:30:20;1.40;;;1.25;;
2638;SDS011;1329;51.384;7.122;2022-07-04T02:32:47;1.25;;;1.02;;
2638;SDS011;1329;51.384;7.122;2022-07-04T02:35:15;1.55;;;1.10;;
2638;SDS011;1329;51.384;7.122;2022-07-04T02:37:53;1.20;;;1.10;;
2638;SDS011;1329;51.384;7.122;2022-07-04T02:40:24;1.48;;;1.10;;
2638;SDS011;1329;51.384;7.122;2022-07-04T02:42:51;1.23;;;1.13;;
2638;SDS011;1329;51.384;7.122;2022-07-04T02:45:21;1.17;;;1.08;;
2638;SDS011;1329;51.384;7.122;2022-07-04T02:47:48;1.10;;;1.10;;
2638;SDS011;1329;51.384;7.122;2022-07-04T02:50:16;3.38;;;1.20;;
2638;SDS011;1329;51.384;7.122;2022-07-04T02:52:44;1.20;;;1.10;;
2638;SDS011;1329;51.384;7.122;2022-07-04T02:55:11;1.30;;;1.20;;
2638;SDS011;1329;51.384;7.122;2022-07-04T02:57:40;1.27;;;1.17;;
2638;SDS011;1329;51.384;7.122;2022-07-04T03:00:13;1.38;;;1.23;;
2638;SDS011;1329;51.384;7.122;2022-07-04T03:02:41;1.10;;;1.10;;
2638;SDS011;1329;51.384;7.122;2022-07-04T03:05:09;1.33;;;1.23;;
2638;SDS011;1329;51.384;7.122;2022-07-04T03:07:36;2.17;;;1.17;;
2638;SDS011;1329;51.384;7.122;2022-07-04T03:10:04;1.20;;;1.10;;
2638;SDS011;1329;51.384;7.122;2022-07-04T03:12:32;1.70;;;1.20;;
2638;SDS011;1329;51.384;7.122;2022-07-04T03:15:01;1.48;;;1.20;;
2638;SDS011;1329;51.384;7.122;2022-07-04T03:17:29;1.40;;;1.30;;
2638;SDS011;1329;51.384;7.122;2022-07-04T03:19:56;1.35;;;1.25;;
2638;SDS011;1329;51.384;7.122;2022-07-04T03:22:25;2.72;;;1.40;;
2638;SDS011;1329;51.384;7.122;2022-07-04T03:24:53;1.40;;;1.15;;
2638;SDS011;1329;51.384;7.122;2022-07-04T03:27:20;1.42;;;1.33;;
2638;SDS011;1329;51.384;7.122;2022-07-04T03:29:48;2.25;;;1.38;;
2638;SDS011;1329;51.384;7.122;2022-07-04T03:32:16;2.47;;;1.30;;
2638;SDS011;1329;51.384;7.122;2022-07-04T03:34:44;2.50;;;1.17;;
2638;SDS011;1329;51.384;7.122;2022-07-04T03:37:12;1.35;;;1.27;;
2638;SDS011;1329;51.384;7.122;2022-07-04T03:39:40;1.35;;;1.10;;
2638;SDS011;1329;51.384;7.122;2022-07-04T03:42:08;1.30;;;1.20;;
2638;SDS011;1329;51.384;7.122;2022-07-04T03:44:36;1.60;;;1.30;;
2638;SDS011;1329;51.384;7.122;2022-07-04T03:47:13;1.27;;;1.17;;
2638;SDS011;1329;51.384;7.122;2022-07-04T03:49:42;1.33;;;1.20;;
2638;SDS011;1329;51.384;7.122;2022-07-04T03:52:10;2.28;;;1.65;;
2638;SDS011;1329;51.384;7.122;2022-07-04T03:54:37;1.85;;;1.48;;
2638;SDS011;1329;51.384;7.122;2022-07-04T03:57:05;1.25;;;1.20;;
2638;SDS011;1329;51.384;7.122;2022-07-04T03:59:33;1.88;;;1.25;;
2638;SDS011;1329;51.384;7.122;2022-07-04T04:02:00;1.70;;;1.38;;
2638;SDS011;1329;51.384;7.122;2022-07-04T04:04:28;1.50;;;1.40;;
2638;SDS011;1329;51.384;7.122;2022-07-04T04:07:14;1.45;;;1.35;;
2638;SDS011;1329;51.384;7.122;2022-07-04T04:09:42;1.90;;;1.40;;
2638;SDS011;1329;51.384;7.122;2022-07-04T04:12:10;2.05;;;1.38;;
2638;SDS011;1329;51.384;7.122;2022-07-04T04:14:38;1.88;;;1.30;;
2638;SDS011;1329;51.384;7.122;2022-07-04T04:17:07;1.75;;;1.58;;
2638;SDS011;1329;51.384;7.122;2022-07-04T04:19:35;1.58;;;1.48;;
2638;SDS011;1329;51.384;7.122;2022-07-04T04:22:04;2.80;;;1.77;;
2638;SDS011;1329;51.384;7.122;2022-07-04T04:24:33;1.60;;;1.42;;
2638;SDS011;1329;51.384;7.122;2022-07-04T04:27:01;1.67;;;1.58;;
2638;SDS011;1329;51.384;7.122;2022-07-04T04:29:29;1.48;;;1.38;;
2638;SDS011;1329;51.384;7.122;2022-07-04T04:31:57;1.98;;;1.77;;
2638;SDS011;1329;51.384;7.122;2022-07-04T04:34:27;2.22;;;1.58;;
2638;SDS011;1329;51.384;7.122;2022-07-04T04:36:55;1.73;;;1.63;;
2638;SDS011;1329;51.384;7.122;2022-07-04T04:39:22;1.90;;;1.70;;
2638;SDS011;1329;51.384;7.122;2022-07-04T04:41:51;3.00;;;1.70;;
2638;SDS011;1329;51.384;7.122;2022-07-04T04:44:18;3.05;;;2.10;;
2638;SDS011;1329;51.384;7.122;2022-07-04T04:46:46;3.58;;;1.70;;
2638;SDS011;1329;51.384;7.122;2022-07-04T04:49:13;1.90;;;1.70;;
2638;SDS011;1329;51.384;7.122;2022-07-04T04:51:42;3.08;;;2.00;;
2638;SDS011;1329;51.384;7.122;2022-07-04T04:54:10;2.40;;;1.80;;
2638;SDS011;1329;51.384;7.122;2022-07-04T04:56:39;2.65;;;1.75;;
2638;SDS011;1329;51.384;7.122;2022-07-04T04:59:07;2.47;;;2.13;;
2638;SDS011;1329;51.384;7.122;2022-07-04T05:01:35;2.33;;;2.00;;
2638;SDS011;1329;51.384;7.122;2022-07-04T05:04:03;2.97;;;2.10;;
2638;SDS011;1329;51.384;7.122;2022-07-04T05:06:30;2.75;;;2.10;;
2638;SDS011;1329;51.384;7.122;2022-07-04T05:08:58;2.60;;;1.90;;
2638;SDS011;1329;51.384;7.122;2022-07-04T05:11:25;2.25;;;1.88;;
2638;SDS011;1329;51.384;7.122;2022-07-04T05:13:53;2.53;;;1.73;;
2638;SDS011;1329;51.384;7.122;2022-07-04T05:16:23;3.72;;;2.15;;
2638;SDS011;1329;51.384;7.122;2022-07-04T05:18:50;2.78;;;1.98;;
2638;SDS011;1329;51.384;7.122;2022-07-04T05:21:17;2.10;;;1.90;;
2638;SDS011;1329;51.384;7.122;2022-07-04T05:23:47;3.13;;;1.83;;
2638;SDS011;1329;51.384;7.122;2022-07-04T05:26:15;1.88;;;1.70;;
2638;SDS011;1329;51.384;7.122;2022-07-04T05:28:42;3.15;;;1.80;;
2638;SDS011;1329;51.384;7.122;2022-07-04T05:31:10;2.08;;;1.83;;
2638;SDS011;1329;51.384;7.122;2022-07-04T05:33:41;2.83;;;1.90;;
2638;SDS011;1329;51.384;7.122;2022-07-04T05:36:08;4.10;;;2.10;;
2638;SDS011;1329;51.384;7.122;2022-07-04T05:38:36;2.63;;;1.95;;
2638;SDS011;1329;51.384;7.122;2022-07-04T05:41:03;3.28;;;1.77;;
2638;SDS011;1329;51.384;7.122;2022-07-04T05:43:34;2.10;;;1.60;;
2638;SDS011;1329;51.384;7.122;2022-07-04T05:46:04;3.08;;;2.03;;
2638;SDS011;1329;51.384;7.122;2022-07-04T05:48:32;3.25;;;1.90;;
2638;SDS011;1329;51.384;7.122;2022-07-04T05:51:01;2.60;;;2.00;;
2638;SDS011;1329;51.384;7.122;2022-07-04T05:53:29;2.45;;;1.90;;
2638;SDS011;1329;51.384;7.122;2022-07-04T05:55:58;3.42;;;2.00;;
2638;SDS011;1329;51.384;7.122;2022-07-04T05:58:31;2.38;;;1.75;;
2638;SDS011;1329;51.384;7.122;2022-07-04T06:01:04;2.85;;;1.92;;
2638;SDS011;1329;51.384;7.122;2022-07-04T06:03:36;3.75;;;2.20;;
2638;SDS011;1329;51.384;7.122;2022-07-04T06:06:11;3.13;;;2.22;;
2638;SDS011;1329;51.384;7.122;2022-07-04T06:08:39;1.98;;;1.80;;
2638;SDS011;1329;51.384;7.122;2022-07-04T06:11:09;2.25;;;1.80;;
2638;SDS011;1329;51.384;7.122;2022-07-04T06:13:37;3.00;;;1.90;;
2638;SDS011;1329;51.384;7.122;2022-07-04T06:16:05;4.03;;;2.15;;
2638;SDS011;1329;51.384;7.122;2022-07-04T06:18:32;3.50;;;1.90;;
2638;SDS011;1329;51.384;7.122;2022-07-04T06:20:59;4.53;;;2.67;;
2638;SDS011;1329;51.384;7.122;2022-07-04T06:23:28;4.97;;;2.40;;
2638;SDS011;1329;51.384;7.122;2022-07-04T06:25:55;2.90;;;2.50;;
2638;SDS011;1329;51.384;7.122;2022-07-04T06:28:23;4.75;;;2.67;;
2638;SDS011;1329;51.384;7.122;2022-07-04T06:30:50;3.53;;;2.72;;
2638;SDS011;1329;51.384;7.122;2022-07-04T06:33:18;3.05;;;2.47;;
2638;SDS011;1329;51.384;7.122;2022-07-04T06:35:45;3.22;;;2.40;;
2638;SDS011;1329;51.384;7.122;2022-07-04T06:38:17;3.45;;;2.30;;
2638;SDS011;1329;51.384;7.122;2022-07-04T06:40:50;2.63;;;2.13;;
2638;SDS011;1329;51.384;7.122;2022-07-04T06:43:20;3.60;;;2.17;;
2638;SDS011;1329;51.384;7.122;2022-07-04T06:45:47;2.58;;;1.63;;
2638;SDS011;1329;51.384;7.122;2022-07-04T06:48:16;2.45;;;1.58;;
2638;SDS011;1329;51.384;7.122;2022-07-04T06:50:44;2.45;;;1.45;;
2638;SDS011;1329;51.384;7.122;2022-07-04T06:53:13;2.42;;;1.50;;
2638;SDS011;1329;51.384;7.122;2022-07-04T06:55:41;2.67;;;1.50;;
2638;SDS011;1329;51.384;7.122;2022-07-04T06:58:11;3.05;;;1.50;;
2638;SDS011;1329;51.384;7.122;2022-07-04T07:00:41;1.63;;;1.38;;
2638;SDS011;1329;51.384;7.122;2022-07-04T07:03:19;2.30;;;1.40;;
2638;SDS011;1329;51.384;7.122;2022-07-04T07:05:46;1.45;;;1.30;;
2638;SDS011;1329;51.384;7.122;2022-07-04T07:08:15;2.15;;;1.30;;
2638;SDS011;1329;51.384;7.122;2022-07-04T07:10:43;1.95;;;1.50;;
2638;SDS011;1329;51.384;7.122;2022-07-04T07:13:12;2.10;;;1.20;;
2638;SDS011;1329;51.384;7.122;2022-07-04T07:15:51;1.77;;;1.30;;
2638;SDS011;1329;51.384;7.122;2022-07-04T07:18:19;2.67;;;1.38;;
2638;SDS011;1329;51.384;7.122;2022-07-04T07:20:47;1.95;;;1.30;;
2638;SDS011;1329;51.384;7.122;2022-07-04T07:23:19;1.25;;;1.10;;
2638;SDS011;1329;51.384;7.122;2022-07-04T07:25:49;2.35;;;1.30;;
2638;SDS011;1329;51.384;7.122;2022-07-04T07:28:18;1.95;;;1.15;;
2638;SDS011;1329;51.384;7.122;2022-07-04T07:30:45;1.20;;;1.10;;
2638;SDS011;1329;51.384;7.122;2022-07-04T07:33:14;2.40;;;1.30;;
2638;SDS011;1329;51.384;7.122;2022-07-04T07:35:42;2.53;;;1.10;;
2638;SDS011;1329;51.384;7.122;2022-07-04T07:38:14;3.15;;;1.30;;
2638;SDS011;1329;51.384;7.122;2022-07-04T07:40:47;1.92;;;1.10;;
2638;SDS011;1329;51.384;7.122;2022-07-04T07:43:20;1.67;;;1.08;;
2638;SDS011;1329;51.384;7.122;2022-07-04T07:45:54;2.30;;;1.27;;
2638;SDS011;1329;51.384;7.122;2022-07-04T07:48:22;3.03;;;1.38;;
2638;SDS011;1329;51.384;7.122;2022-07-04T07:50:53;1.33;;;0.98;;
2638;SDS011;1329;51.384;7.122;2022-07-04T07:53:23;1.42;;;0.90;;
2638;SDS011;1329;51.384;7.122;2022-07-04T07:55:56;1.20;;;0.82;;
2638;SDS011;1329;51.384;7.122;2022-07-04T07:58:25;1.08;;;0.85;;
2638;SDS011;1329;51.384;7.122;2022-07-04T08:00:56;1.00;;;0.70;;
2638;SDS011;1329;51.384;7.122;2022-07-04T08:03:28;1.63;;;0.90;;
2638;SDS011;1329;51.384;7.122;2022-07-04T08:06:13;1.83;;;0.75;;
2638;SDS011;1329;51.384;7.122;2022-07-04T08:09:05;1.17;;;0.70;;
2638;SDS011;1329;51.384;7.122;2022-07-04T08:11:42;0.95;;;0.80;;
2638;SDS011;1329;51.384;7.122;2022-07-04T08:16:57;2.42;;;1.08;;
2638;SDS011;1329;51.384;7.122;2022-07-04T08:19:30;1.48;;;1.00;;
2638;SDS011;1329;51.384;7.122;2022-07-04T08:21:58;2.28;;;1.10;;
2638;SDS011;1329;51.384;7.122;2022-07-04T08:24:27;1.70;;;1.30;;
2638;SDS011;1329;51.384;7.122;2022-07-04T08:26:55;2.83;;;1.60;;
2638;SDS011;1329;51.384;7.122;2022-07-04T08:29:24;1.40;;;1.30;;
2638;SDS011;1329;51.384;7.122;2022-07-04T08:31:58;1.75;;;1.40;;
2638;SDS011;1329;51.384;7.122;2022-07-04T08:34:32;2.47;;;1.10;;
2638;SDS011;1329;51.384;7.122;2022-07-04T08:37:01;1.98;;;1.60;;
2638;SDS011;1329;51.384;7.122;2022-07-04T08:39:29;2.58;;;1.50;;
2638;SDS011;1329;51.384;7.122;2022-07-04T08:41:58;2.10;;;1.25;;
2638;SDS011;1329;51.384;7.122;2022-07-04T08:44:39;1.38;;;1.05;;
2638;SDS011;1329;51.384;7.122;2022-07-04T08:47:28;1.73;;;1.20;;
2638;SDS011;1329;51.384;7.122;2022-07-04T08:50:09;3.13;;;1.48;;
2638;SDS011;1329;51.384;7.122;2022-07-04T08:52:46;1.40;;;1.00;;
2638;SDS011;1329;51.384;7.122;2022-07-04T08:55:21;0.88;;;0.80;;
2638;SDS011;1329;51.384;7.122;2022-07-04T08:58:11;2.70;;;1.30;;
2638;SDS011;1329;51.384;7.122;2022-07-04T09:00:59;1.58;;;1.00;;
2638;SDS011;1329;51.384;7.122;2022-07-04T09:03:42;2.75;;;1.00;;
2638;SDS011;1329;51.384;7.122;2022-07-04T09:06:28;3.45;;;0.80;;
2638;SDS011;1329;51.384;7.122;2022-07-04T09:09:01;1.50;;;0.90;;
2638;SDS011;1329;51.384;7.122;2022-07-04T09:11:44;1.38;;;0.75;;
2638;SDS011;1329;51.384;7.122;2022-07-04T09:14:26;3.33;;;1.00;;
2638;SDS011;1329;51.384;7.122;2022-07-04T09:17:23;2.72;;;0.80;;
2638;SDS011;1329;51.384;7.122;2022-07-04T09:27:28;1.38;;;0.93;;
2638;SDS011;1329;51.384;7.122;2022-07-04T09:29:54;1.38;;;0.60;;
2638;SDS011;1329;51.384;7.122;2022-07-04T09:32:57;0.93;;;0.55;;
2638;SDS011;1329;51.384;7.122;2022-07-04T09:35:54;1.05;;;0.70;;
2638;SDS011;1329;51.384;7.122;2022-07-04T09:39:12;1.55;;;0.60;;
2638;SDS011;1329;51.384;7.122;2022-07-04T09:43:00;1.33;;;0.70;;
2638;SDS011;1329;51.384;7.122;2022-07-04T09:56:30;0.80;;;0.60;;
2638;SDS011;1329;51.384;7.122;2022-07-04T10:03:23;1.15;;;0.55;;
2638;SDS011;1329;51.384;7.122;2022-07-04T10:06:40;1.42;;;0.55;;
2638;SDS011;1329;51.384;7.122;2022-07-04T10:09:27;1.55;;;0.77;;
2638;SDS011;1329;51.384;7.122;2022-07-04T10:15:46;1.10;;;0.70;;
2638;SDS011;1329;51.384;7.122;2022-07-04T10:18:49;1.00;;;0.65;;
2638;SDS011;1329;51.384;7.122;2022-07-04T10:22:01;0.80;;;0.65;;
2638;SDS011;1329;51.384;7.122;2022-07-04T10:31:24;1.23;;;0.60;;
2638;SDS011;1329;51.384;7.122;2022-07-04T10:34:19;0.50;;;0.50;;
2638;SDS011;1329;51.384;7.122;2022-07-04T10:41:07;0.70;;;0.50;;
2638;SDS011;1329;51.384;7.122;2022-07-04T10:44:07;1.45;;;0.60;;
2638;SDS011;1329;51.384;7.122;2022-07-04T10:47:04;1.85;;;0.60;;
2638;SDS011;1329;51.384;7.122;2022-07-04T10:50:40;1.52;;;0.80;;
2638;SDS011;1329;51.384;7.122;2022-07-04T10:53:29;0.68;;;0.55;;
2638;SDS011;1329;51.384;7.122;2022-07-04T10:56:45;1.42;;;0.70;;
2638;SDS011;1329;51.384;7.122;2022-07-04T11:05:47;1.70;;;0.60;;
2638;SDS011;1329;51.384;7.122;2022-07-04T11:08:20;0.70;;;0.57;;
2638;SDS011;1329;51.384;7.122;2022-07-04T11:10:51;1.50;;;0.60;;
2638;SDS011;1329;51.384;7.122;2022-07-04T11:13:34;1.00;;;0.70;;
2638;SDS011;1329;51.384;7.122;2022-07-04T11:16:14;2.08;;;0.80;;
2638;SDS011;1329;51.384;7.122;2022-07-04T11:18:43;1.45;;;0.50;;
2638;SDS011;1329;51.384;7.122;2022-07-04T11:21:16;0.90;;;0.75;;
2638;SDS011;1329;51.384;7.122;2022-07-04T11:23:52;2.28;;;0.70;;
2638;SDS011;1329;51.384;7.122;2022-07-04T11:26:24;0.95;;;0.70;;
2638;SDS011;1329;51.384;7.122;2022-07-04T11:28:54;0.73;;;0.60;;
2638;SDS011;1329;51.384;7.122;2022-07-04T11:31:49;1.90;;;0.60;;
2638;SDS011;1329;51.384;7.122;2022-07-04T11:34:22;1.10;;;0.70;;
2638;SDS011;1329;51.384;7.122;2022-07-04T11:36:52;1.15;;;0.70;;
2638;SDS011;1329;51.384;7.122;2022-07-04T11:39:38;2.75;;;0.80;;
2638;SDS011;1329;51.384;7.122;2022-07-04T11:42:19;2.47;;;1.00;;
2638;SDS011;1329;51.384;7.122;2022-07-04T11:45:20;1.55;;;1.00;;
2638;SDS011;1329;51.384;7.122;2022-07-04T11:48:22;1.83;;;0.95;;
2638;SDS011;1329;51.384;7.122;2022-07-04T11:50:59;1.27;;;0.70;;
2638;SDS011;1329;51.384;7.122;2022-07-04T11:54:03;1.88;;;0.93;;
2638;SDS011;1329;51.384;7.122;2022-07-04T11:56:36;1.40;;;0.90;;
2638;SDS011;1329;51.384;7.122;2022-07-04T11:59:15;2.75;;;0.85;;
2638;SDS011;1329;51.384;7.122;2022-07-04T12:01:46;2.38;;;0.90;;
2638;SDS011;1329;51.384;7.122;2022-07-04T12:04:28;1.27;;;0.80;;
2638;SDS011;1329;51.384;7.122;2022-07-04T12:07:18;1.40;;;1.08;;
2638;SDS011;1329;51.384;7.122;2022-07-04T12:10:21;1.40;;;1.00;;
2638;SDS011;1329;51.384;7.122;2022-07-04T12:13:10;1.25;;;0.90;;
2638;SDS011;1329;51.384;7.122;2022-07-04T12:15:46;1.20;;;0.90;;
2638;SDS011;1329;51.384;7.122;2022-07-04T12:18:30;1.38;;;1.00;;
2638;SDS011;1329;51.384;7.122;2022-07-04T12:23:58;0.82;;;0.82;;
2638;SDS011;1329;51.384;7.122;2022-07-04T12:26:47;1.02;;;0.63;;
2638;SDS011;1329;51.384;7.122;2022-07-04T12:29:27;0.80;;;0.75;;
2638;SDS011;1329;51.384;7.122;2022-07-04T12:32:24;1.65;;;0.90;;
2638;SDS011;1329;51.384;7.122;2022-07-04T12:38:35;2.58;;;0.80;;
2638;SDS011;1329;51.384;7.122;2022-07-04T12:41:15;2.28;;;0.95;;
2638;SDS011;1329;51.384;7.122;2022-07-04T12:44:00;1.67;;;0.85;;
2638;SDS011;1329;51.384;7.122;2022-07-04T12:46:55;1.33;;;1.00;;
2638;SDS011;1329;51.384;7.122;2022-07-04T12:49:41;2.00;;;1.00;;
2638;SDS011;1329;51.384;7.122;2022-07-04T12:52:19;1.73;;;1.00;;
2638;SDS011;1329;51.384;7.122;2022-07-04T12:58:07;2.20;;;0.90;;
2638;SDS011;1329;51.384;7.122;2022-07-04T13:00:50;0.90;;;0.90;;
2638;SDS011;1329;51.384;7.122;2022-07-04T13:03:33;1.20;;;0.80;;
2638;SDS011;1329;51.384;7.122;2022-07-04T13:06:25;2.00;;;0.88;;
2638;SDS011;1329;51.384;7.122;2022-07-04T13:08:58;3.03;;;1.00;;
2638;SDS011;1329;51.384;7.122;2022-07-04T13:11:34;1.80;;;0.85;;
2638;SDS011;1329;51.384;7.122;2022-07-04T13:18:04;0.88;;;0.70;;
2638;SDS011;1329;51.384;7.122;2022-07-04T13:20:44;1.27;;;0.73;;
2638;SDS011;1329;51.384;7.122;2022-07-04T13:26:46;1.95;;;1.05;;
2638;SDS011;1329;51.384;7.122;2022-07-04T13:29:27;1.27;;;0.80;;
2638;SDS011;1329;51.384;7.122;2022-07-04T13:32:37;1.85;;;0.90;;
2638;SDS011;1329;51.384;7.122;2022-07-04T13:38:55;1.13;;;0.80;;
2638;SDS011;1329;51.384;7.122;2022-07-04T13:41:53;2.35;;;0.68;;
2638;SDS011;1329;51.384;7.122;2022-07-04T13:51:38;0.98;;;0.82;;
2638;SDS011;1329;51.384;7.122;2022-07-04T13:58:04;1.05;;;0.80;;
2638;SDS011;1329;51.384;7.122;2022-07-04T14:01:09;1.10;;;0.80;;
2638;SDS011;1329;51.384;7.122;2022-07-04T14:04:27;1.20;;;0.90;;
2638;SDS011;1329;51.384;7.122;2022-07-04T14:07:37;1.25;;;0.80;;
2638;SDS011;1329;51.384;7.122;2022-07-04T14:10:55;1.63;;;1.02;;
2638;SDS011;1329;51.384;7.122;2022-07-04T14:17:44;1.30;;;1.02;;
2638;SDS011;1329;51.384;7.122;2022-07-04T14:24:34;1.48;;;0.90;;
2638;SDS011;1329;51.384;7.122;2022-07-04T14:27:57;1.75;;;0.85;;
2638;SDS011;1329;51.384;7.122;2022-07-04T14:31:20;1.10;;;0.75;;
2638;SDS011;1329;51.384;7.122;2022-07-04T14:34:18;1.15;;;0.70;;
2638;SDS011;1329;51.384;7.122;2022-07-04T14:37:22;4.22;;;0.82;;
2638;SDS011;1329;51.384;7.122;2022-07-04T14:49:16;1.10;;;0.80;;
2638;SDS011;1329;51.384;7.122;2022-07-04T14:52:14;1.08;;;0.70;;
2638;SDS011;1329;51.384;7.122;2022-07-04T14:54:53;1.73;;;0.70;;
2638;SDS011;1329;51.384;7.122;2022-07-04T14:57:50;2.15;;;0.80;;
2638;SDS011;1329;51.384;7.122;2022-07-04T15:00:19;1.02;;;0.70;;
2638;SDS011;1329;51.384;7.122;2022-07-04T15:03:08;1.10;;;0.70;;
2638;SDS011;1329;51.384;7.122;2022-07-04T15:06:04;0.82;;;0.70;;
2638;SDS011;1329;51.384;7.122;2022-07-04T15:08:54;0.77;;;0.70;;
2638;SDS011;1329;51.384;7.122;2022-07-04T15:11:53;0.70;;;0.70;;
2638;SDS011;1329;51.384;7.122;2022-07-04T15:15:27;1.30;;;0.80;;
2638;SDS011;1329;51.384;7.122;2022-07-04T15:22:27;1.02;;;0.90;;
2638;SDS011;1329;51.384;7.122;2022-07-04T15:25:30;2.92;;;0.95;;
2638;SDS011;1329;51.384;7.122;2022-07-04T15:35:21;1.02;;;0.80;;
2638;SDS011;1329;51.384;7.122;2022-07-04T15:46:26;1.30;;;0.90;;
2638;SDS011;1329;51.384;7.122;2022-07-04T15:49:55;1.10;;;0.70;;
2638;SDS011;1329;51.384;7.122;2022-07-04T16:01:00;1.52;;;1.00;;
2638;SDS011;1329;51.384;7.122;2022-07-04T16:03:40;1.10;;;0.98;;
2638;SDS011;1329;51.384;7.122;2022-07-04T16:06:11;1.80;;;1.00;;
2638;SDS011;1329;51.384;7.122;2022-07-04T16:08:40;1.10;;;1.00;;
2638;SDS011;1329;51.384;7.122;2022-07-04T16:11:08;1.45;;;1.00;;
2638;SDS011;1329;51.384;7.122;2022-07-04T16:13:38;1.67;;;1.05;;
2638;SDS011;1329;51.384;7.122;2022-07-04T16:16:12;1.33;;;0.90;;
2638;SDS011;1329;51.384;7.122;2022-07-04T16:18:40;2.72;;;1.20;;
2638;SDS011;1329;51.384;7.122;2022-07-04T16:21:09;1.75;;;1.17;;
2638;SDS011;1329;51.384;7.122;2022-07-04T16:23:46;0.90;;;0.80;;
2638;SDS011;1329;51.384;7.122;2022-07-04T16:26:17;1.98;;;1.00;;
2638;SDS011;1329;51.384;7.122;2022-07-04T16:28:47;1.15;;;0.80;;
2638;SDS011;1329;51.384;7.122;2022-07-04T16:31:17;1.25;;;0.70;;
2638;SDS011;1329;51.384;7.122;2022-07-04T16:33:46;1.45;;;0.60;;
2638;SDS011;1329;51.384;7.122;2022-07-04T16:36:14;0.70;;;0.68;;
2638;SDS011;1329;51.384;7.122;2022-07-04T16:38:42;1.15;;;0.80;;
2638;SDS011;1329;51.384;7.122;2022-07-04T16:41:14;1.33;;;0.80;;
2638;SDS011;1329;51.384;7.122;2022-07-04T16:43:51;1.13;;;0.75;;
2638;SDS011;1329;51.384;7.122;2022-07-04T16:46:27;1.77;;;0.80;;
2638;SDS011;1329;51.384;7.122;2022-07-04T16:48:59;1.05;;;0.90;;
2638;SDS011;1329;51.384;7.122;2022-07-04T16:51:29;1.85;;;1.00;;
2638;SDS011;1329;51.384;7.122;2022-07-04T16:54:02;1.77;;;0.90;;
2638;SDS011;1329;51.384;7.122;2022-07-04T16:56:30;1.27;;;0.93;;
2638;SDS011;1329;51.384;7.122;2022-07-04T16:59:03;2.00;;;1.10;;
2638;SDS011;1329;51.384;7.122;2022-07-04T17:01:31;2.25;;;0.95;;
2638;SDS011;1329;51.384;7.122;2022-07-04T17:04:09;1.63;;;0.90;;
2638;SDS011;1329;51.384;7.122;2022-07-04T17:06:42;1.67;;;0.90;;
2638;SDS011;1329;51.384;7.122;2022-07-04T17:09:24;0.85;;;0.82;;
2638;SDS011;1329;51.384;7.122;2022-07-04T17:11:55;1.45;;;1.00;;
2638;SDS011;1329;51.384;7.122;2022-07-04T17:17:13;1.23;;;0.77;;
2638;SDS011;1329;51.384;7.122;2022-07-04T17:19:47;1.02;;;0.80;;
2638;SDS011;1329;51.384;7.122;2022-07-04T17:22:23;1.70;;;0.90;;
2638;SDS011;1329;51.384;7.122;2022-07-04T17:25:02;1.80;;;0.98;;
2638;SDS011;1329;51.384;7.122;2022-07-04T17:27:32;1.98;;;0.90;;
2638;SDS011;1329;51.384;7.122;2022-07-04T17:30:05;1.67;;;0.90;;
2638;SDS011;1329;51.384;7.122;2022-07-04T17:32:40;2.40;;;1.10;;
2638;SDS011;1329;51.384;7.122;2022-07-04T17:35:20;1.13;;;0.85;;
2638;SDS011;1329;51.384;7.122;2022-07-04T17:38:09;1.10;;;0.85;;
2638;SDS011;1329;51.384;7.122;2022-07-04T17:40:38;1.67;;;0.90;;
2638;SDS011;1329;51.384;7.122;2022-07-04T17:43:29;2.08;;;0.75;;
2638;SDS011;1329;51.384;7.122;2022-07-04T17:46:07;0.88;;;0.80;;
2638;SDS011;1329;51.384;7.122;2022-07-04T17:48:36;1.40;;;0.75;;
2638;SDS011;1329;51.384;7.122;2022-07-04T17:51:06;0.90;;;0.77;;
2638;SDS011;1329;51.384;7.122;2022-07-04T17:53:42;0.95;;;0.90;;
2638;SDS011;1329;51.384;7.122;2022-07-04T17:56:16;1.80;;;0.80;;
2638;SDS011;1329;51.384;7.122;2022-07-04T17:58:50;2.22;;;1.00;;
2638;SDS011;1329;51.384;7.122;2022-07-04T18:01:26;1.60;;;0.90;;
2638;SDS011;1329;51.384;7.122;2022-07-04T18:03:58;1.30;;;1.05;;
2638;SDS011;1329;51.384;7.122;2022-07-04T18:06:29;1.35;;;1.00;;
2638;SDS011;1329;51.384;7.122;2022-07-04T18:09:19;1.35;;;1.00;;
2638;SDS011;1329;51.384;7.122;2022-07-04T18:11:59;1.88;;;1.05;;
2638;SDS011;1329;51.384;7.122;2022-07-04T18:14:36;1.75;;;1.20;;